sensor_id;sensor_type;location;lat;lon;timestamp;pressure;altitude;pressure_sealevel;temperature;humidity
50093;BME280;35974;47.752;10.290;2023-12-29T00:07:33;93891.06;;;3.80;100.00
50093;BME280;35974;47.752;10.290;2023-12-29T00:10:00;93989.47;;;4.46;100.00
50093;BME280;35974;47.752;10.290;2023-12-29T00:12:27;93995.94;;;4.33;100.00
50093;BME280;35974;47.752;10.290;2023-12-29T00:14:53;94027.34;;;4.30;100.00
50093;BME280;35974;47.752;10.290;2023-12-29T00:17:20;94034.31;;;4.21;100.00
50093;BME280;35974;47.752;10.290;2023-12-29T00:19:48;94009.84;;;3.99;100.00
50093;BME280;35974;47.752;10.290;2023-12-29T00:22:15;93999.31;;;3.84;100.00
50093;BME280;35974;47.752;10.290;2023-12-29T00:24:41;94049.69;;;4.15;100.00
50093;BME280;35974;47.752;10.290;2023-12-29T00:27:09;94052.25;;;4.07;100.00
50093;BME280;35974;47.752;10.290;2023-12-29T00:29:35;94018.56;;;3.82;100.00
50093;BME280;35974;47.752;10.290;2023-12-29T00:32:02;94044.09;;;3.77;100.00
50093;BME280;35974;47.752;10.290;2023-12-29T00:34:30;94002.94;;;3.49;100.00
50093;BME280;35974;47.752;10.290;2023-12-29T00:36:56;94022.38;;;3.61;100.00
50093;BME280;35974;47.752;10.290;2023-12-29T00:39:23;94057.03;;;3.77;100.00
50093;BME280;35974;47.752;10.290;2023-12-29T00:41:59;94002.31;;;3.55;100.00
50093;BME280;35974;47.752;10.290;2023-12-29T00:44:25;94048.16;;;3.88;100.00
50093;BME280;35974;47.752;10.290;2023-12-29T00:46:52;94015.91;;;3.65;100.00
50093;BME280;35974;47.752;10.290;2023-12-29T00:49:18;94001.38;;;3.64;100.00
50093;BME280;35974;47.752;10.290;2023-12-29T00:51:47;94005.63;;;3.82;100.00
50093;BME280;35974;47.752;10.290;2023-12-29T00:54:14;94020.47;;;3.80;100.00
50093;BME280;35974;47.752;10.290;2023-12-29T00:56:40;93944.03;;;3.35;100.00
50093;BME280;35974;47.752;10.290;2023-12-29T00:59:07;93991.66;;;3.66;100.00
50093;BME280;35974;47.752;10.290;2023-12-29T01:01:35;93990.09;;;3.74;100.00
50093;BME280;35974;47.752;10.290;2023-12-29T01:04:02;93982.97;;;3.76;100.00
50093;BME280;35974;47.752;10.290;2023-12-29T01:06:29;93959.03;;;3.74;100.00
50093;BME280;35974;47.752;10.290;2023-12-29T01:08:56;94005.97;;;4.03;100.00
50093;BME280;35974;47.752;10.290;2023-12-29T01:11:22;93988.16;;;3.92;100.00
50093;BME280;35974;47.752;10.290;2023-12-29T01:13:49;93932.78;;;3.77;100.00
50093;BME280;35974;47.752;10.290;2023-12-29T01:16:15;93935.41;;;4.01;100.00
50093;BME280;35974;47.752;10.290;2023-12-29T01:18:42;93953.53;;;4.26;100.00
50093;BME280;35974;47.752;10.290;2023-12-29T01:21:09;93951.72;;;4.35;100.00
50093;BME280;35974;47.752;10.290;2023-12-29T01:23:35;93939.59;;;4.44;100.00
50093;BME280;35974;47.752;10.290;2023-12-29T01:26:02;93959.97;;;4.63;100.00
50093;BME280;35974;47.752;10.290;2023-12-29T01:28:28;93939.56;;;4.60;100.00
50093;BME280;35974;47.752;10.290;2023-12-29T01:30:55;93917.81;;;4.69;100.00
50093;BME280;35974;47.752;10.290;2023-12-29T01:33:22;93934.63;;;4.90;100.00
50093;BME280;35974;47.752;10.290;2023-12-29T01:35:48;93975.56;;;5.42;100.00
50093;BME280;35974;47.752;10.290;2023-12-29T01:38:15;93968.09;;;5.47;100.00
50093;BME280;35974;47.752;10.290;2023-12-29T01:40:45;93961.28;;;5.46;100.00
50093;BME280;35974;47.752;10.290;2023-12-29T01:43:12;93950.59;;;5.49;100.00
50093;BME280;35974;47.752;10.290;2023-12-29T01:45:39;93962.47;;;5.67;100.00
50093;BME280;35974;47.752;10.290;2023-12-29T01:48:22;93934.22;;;5.72;100.00
50093;BME280;35974;47.752;10.290;2023-12-29T01:50:50;93927.97;;;5.81;100.00
50093;BME280;35974;47.752;10.290;2023-12-29T01:53:17;93930.16;;;5.93;100.00
50093;BME280;35974;47.752;10.290;2023-12-29T01:55:47;93948.09;;;6.11;100.00
50093;BME280;35974;47.752;10.290;2023-12-29T01:58:15;93966.56;;;6.39;100.00
50093;BME280;35974;47.752;10.290;2023-12-29T02:00:42;93934.44;;;6.32;100.00
50093;BME280;35974;47.752;10.290;2023-12-29T02:03:10;93881.47;;;5.95;100.00
50093;BME280;35974;47.752;10.290;2023-12-29T02:05:37;93905.94;;;6.23;100.00
50093;BME280;35974;47.752;10.290;2023-12-29T02:08:05;93903.25;;;6.32;100.00
50093;BME280;35974;47.752;10.290;2023-12-29T02:10:35;93915.47;;;6.46;100.00
50093;BME280;35974;47.752;10.290;2023-12-29T02:13:02;93904.53;;;6.36;100.00
50093;BME280;35974;47.752;10.290;2023-12-29T02:15:28;93927.22;;;6.57;100.00
50093;BME280;35974;47.752;10.290;2023-12-29T02:18:02;93899.88;;;6.46;100.00
50093;BME280;35974;47.752;10.290;2023-12-29T02:20:31;93954.78;;;6.81;100.00
50093;BME280;35974;47.752;10.290;2023-12-29T02:22:58;93917.81;;;6.71;100.00
50093;BME280;35974;47.752;10.290;2023-12-29T02:25:24;93923.22;;;6.84;100.00
50093;BME280;35974;47.752;10.290;2023-12-29T02:27:57;93904.28;;;6.75;100.00
50093;BME280;35974;47.752;10.290;2023-12-29T02:30:34;93953.91;;;7.04;100.00
50093;BME280;35974;47.752;10.290;2023-12-29T02:33:10;93912.66;;;6.86;100.00
50093;BME280;35974;47.752;10.290;2023-12-29T02:35:42;93898.09;;;6.62;100.00
50093;BME280;35974;47.752;10.290;2023-12-29T02:38:10;93916.38;;;6.53;100.00
50093;BME280;35974;47.752;10.290;2023-12-29T02:40:37;93928.53;;;6.38;100.00
50093;BME280;35974;47.752;10.290;2023-12-29T02:43:04;93917.63;;;6.43;100.00
50093;BME280;35974;47.752;10.290;2023-12-29T02:45:31;93952.56;;;6.40;100.00
50093;BME280;35974;47.752;10.290;2023-12-29T02:47:57;93900.97;;;5.91;100.00
50093;BME280;35974;47.752;10.290;2023-12-29T02:50:25;93920.41;;;6.03;100.00
50093;BME280;35974;47.752;10.290;2023-12-29T02:52:56;93936.44;;;5.83;100.00
50093;BME280;35974;47.752;10.290;2023-12-29T02:55:23;93951.28;;;5.66;100.00
50093;BME280;35974;47.752;10.290;2023-12-29T02:57:49;93934.66;;;5.53;100.00
50093;BME280;35974;47.752;10.290;2023-12-29T03:00:16;93911.78;;;5.25;100.00
50093;BME280;35974;47.752;10.290;2023-12-29T03:02:43;93883.16;;;5.10;100.00
50093;BME280;35974;47.752;10.290;2023-12-29T03:05:13;93851.59;;;4.67;100.00
50093;BME280;35974;47.752;10.290;2023-12-29T03:07:40;93914.41;;;4.77;100.00
50093;BME280;35974;47.752;10.290;2023-12-29T03:10:07;93935.31;;;4.67;100.00
50093;BME280;35974;47.752;10.290;2023-12-29T03:12:34;93902.69;;;4.33;100.00
50093;BME280;35974;47.752;10.290;2023-12-29T03:15:02;93911.88;;;4.52;100.00
50093;BME280;35974;47.752;10.290;2023-12-29T03:17:29;93870.97;;;4.23;100.00
50093;BME280;35974;47.752;10.290;2023-12-29T03:19:55;93914.69;;;4.18;100.00
50093;BME280;35974;47.752;10.290;2023-12-29T03:22:22;93896.56;;;4.10;100.00
50093;BME280;35974;47.752;10.290;2023-12-29T03:24:49;93899.50;;;3.98;100.00
50093;BME280;35974;47.752;10.290;2023-12-29T03:27:15;93874.91;;;3.86;100.00
50093;BME280;35974;47.752;10.290;2023-12-29T03:29:42;93895.25;;;4.22;100.00
50093;BME280;35974;47.752;10.290;2023-12-29T03:32:09;93895.13;;;3.82;100.00
50093;BME280;35974;47.752;10.290;2023-12-29T03:34:35;93888.00;;;3.84;100.00
50093;BME280;35974;47.752;10.290;2023-12-29T03:37:02;93878.78;;;3.98;100.00
50093;BME280;35974;47.752;10.290;2023-12-29T03:39:29;93926.00;;;4.33;100.00
50093;BME280;35974;47.752;10.290;2023-12-29T03:41:56;93881.97;;;4.17;100.00
50093;BME280;35974;47.752;10.290;2023-12-29T03:44:23;93894.28;;;4.31;100.00
50093;BME280;35974;47.752;10.290;2023-12-29T03:46:50;93897.19;;;4.20;100.00
50093;BME280;35974;47.752;10.290;2023-12-29T03:49:17;93897.50;;;4.25;100.00
50093;BME280;35974;47.752;10.290;2023-12-29T03:51:58;93864.16;;;4.22;100.00
50093;BME280;35974;47.752;10.290;2023-12-29T03:54:25;93920.44;;;4.61;100.00
50093;BME280;35974;47.752;10.290;2023-12-29T03:56:51;93886.16;;;4.43;100.00
50093;BME280;35974;47.752;10.290;2023-12-29T03:59:18;93857.03;;;4.40;100.00
50093;BME280;35974;47.752;10.290;2023-12-29T04:01:44;93901.88;;;4.89;100.00
50093;BME280;35974;47.752;10.290;2023-12-29T04:04:11;93872.78;;;4.70;100.00
50093;BME280;35974;47.752;10.290;2023-12-29T04:06:38;93888.00;;;4.73;100.00
50093;BME280;35974;47.752;10.290;2023-12-29T04:09:04;93838.03;;;4.48;100.00
50093;BME280;35974;47.752;10.290;2023-12-29T04:11:31;93881.88;;;4.58;100.00
50093;BME280;35974;47.752;10.290;2023-12-29T04:13:57;93860.25;;;4.43;100.00
50093;BME280;35974;47.752;10.290;2023-12-29T04:16:24;93912.25;;;4.89;100.00
50093;BME280;35974;47.752;10.290;2023-12-29T04:18:50;93871.16;;;4.69;100.00
50093;BME280;35974;47.752;10.290;2023-12-29T04:21:17;93862.94;;;4.57;100.00
50093;BME280;35974;47.752;10.290;2023-12-29T04:23:43;93913.44;;;5.18;100.00
50093;BME280;35974;47.752;10.290;2023-12-29T04:26:10;93818.72;;;4.59;100.00
50093;BME280;35974;47.752;10.290;2023-12-29T04:28:36;93870.00;;;5.11;100.00
50093;BME280;35974;47.752;10.290;2023-12-29T04:31:03;93864.66;;;5.13;100.00
50093;BME280;35974;47.752;10.290;2023-12-29T04:33:31;93836.38;;;5.26;100.00
50093;BME280;35974;47.752;10.290;2023-12-29T04:35:57;93869.47;;;5.47;100.00
50093;BME280;35974;47.752;10.290;2023-12-29T04:38:24;93852.41;;;5.30;100.00
50093;BME280;35974;47.752;10.290;2023-12-29T04:40:50;93878.31;;;5.61;100.00
50093;BME280;35974;47.752;10.290;2023-12-29T04:43:17;93871.50;;;5.60;100.00
50093;BME280;35974;47.752;10.290;2023-12-29T04:45:43;93877.00;;;5.65;100.00
50093;BME280;35974;47.752;10.290;2023-12-29T04:48:10;93905.94;;;5.77;100.00
50093;BME280;35974;47.752;10.290;2023-12-29T04:50:36;93883.72;;;5.52;100.00
50093;BME280;35974;47.752;10.290;2023-12-29T04:53:04;93911.25;;;5.61;100.00
50093;BME280;35974;47.752;10.290;2023-12-29T04:55:35;93894.41;;;5.57;100.00
50093;BME280;35974;47.752;10.290;2023-12-29T04:58:02;93911.38;;;5.91;100.00
50093;BME280;35974;47.752;10.290;2023-12-29T05:00:29;93962.19;;;6.16;100.00
50093;BME280;35974;47.752;10.290;2023-12-29T05:02:56;93921.19;;;6.03;100.00
50093;BME280;35974;47.752;10.290;2023-12-29T05:05:22;93921.09;;;5.97;100.00
50093;BME280;35974;47.752;10.290;2023-12-29T05:07:49;93953.28;;;6.34;100.00
50093;BME280;35974;47.752;10.290;2023-12-29T05:10:15;93908.59;;;6.15;100.00
50093;BME280;35974;47.752;10.290;2023-12-29T05:12:42;93886.81;;;6.01;100.00
50093;BME280;35974;47.752;10.290;2023-12-29T05:15:09;93935.50;;;6.22;100.00
50093;BME280;35974;47.752;10.290;2023-12-29T05:17:35;93900.53;;;6.10;100.00
50093;BME280;35974;47.752;10.290;2023-12-29T05:20:02;93914.38;;;6.26;100.00
50093;BME280;35974;47.752;10.290;2023-12-29T05:22:29;93919.78;;;6.39;100.00
50093;BME280;35974;47.752;10.290;2023-12-29T05:24:56;93902.34;;;6.25;100.00
50093;BME280;35974;47.752;10.290;2023-12-29T05:27:26;93879.75;;;6.10;100.00
50093;BME280;35974;47.752;10.290;2023-12-29T05:29:53;93927.13;;;6.50;100.00
50093;BME280;35974;47.752;10.290;2023-12-29T05:32:20;93918.59;;;6.41;100.00
50093;BME280;35974;47.752;10.290;2023-12-29T05:34:46;93887.88;;;6.45;100.00
50093;BME280;35974;47.752;10.290;2023-12-29T05:37:13;93959.81;;;6.83;100.00
50093;BME280;35974;47.752;10.290;2023-12-29T05:39:43;93972.91;;;6.89;100.00
50093;BME280;35974;47.752;10.290;2023-12-29T05:42:09;93928.22;;;6.71;100.00
50093;BME280;35974;47.752;10.290;2023-12-29T05:44:40;93961.69;;;6.89;100.00
50093;BME280;35974;47.752;10.290;2023-12-29T05:47:07;93942.56;;;6.67;100.00
50093;BME280;35974;47.752;10.290;2023-12-29T05:49:33;93941.41;;;6.69;100.00
50093;BME280;35974;47.752;10.290;2023-12-29T05:52:05;93932.88;;;6.60;100.00
50093;BME280;35974;47.752;10.290;2023-12-29T05:54:33;93926.78;;;6.53;100.00
50093;BME280;35974;47.752;10.290;2023-12-29T05:57:02;93907.22;;;6.43;100.00
50093;BME280;35974;47.752;10.290;2023-12-29T05:59:29;93941.72;;;6.51;100.00
50093;BME280;35974;47.752;10.290;2023-12-29T06:01:56;93951.00;;;6.69;100.00
50093;BME280;35974;47.752;10.290;2023-12-29T06:04:23;93916.38;;;6.53;100.00
50093;BME280;35974;47.752;10.290;2023-12-29T06:06:49;93903.81;;;6.42;100.00
50093;BME280;35974;47.752;10.290;2023-12-29T06:09:16;93905.41;;;6.43;100.00
50093;BME280;35974;47.752;10.290;2023-12-29T06:11:43;93964.44;;;6.72;100.00
50093;BME280;35974;47.752;10.290;2023-12-29T06:14:09;93921.59;;;6.53;100.00
50093;BME280;35974;47.752;10.290;2023-12-29T06:16:36;93959.16;;;6.81;100.00
50093;BME280;35974;47.752;10.290;2023-12-29T06:19:03;93933.06;;;6.74;100.00
50093;BME280;35974;47.752;10.290;2023-12-29T06:21:42;93950.56;;;6.80;100.00
50093;BME280;35974;47.752;10.290;2023-12-29T06:24:10;93965.63;;;6.85;100.00
50093;BME280;35974;47.752;10.290;2023-12-29T06:26:37;93928.59;;;6.68;100.00
50093;BME280;35974;47.752;10.290;2023-12-29T06:29:09;93908.84;;;6.58;100.00
50093;BME280;35974;47.752;10.290;2023-12-29T06:31:41;93977.75;;;6.92;100.00
50093;BME280;35974;47.752;10.290;2023-12-29T06:34:09;93951.00;;;6.69;100.00
50093;BME280;35974;47.752;10.290;2023-12-29T06:36:36;93928.75;;;6.51;100.00
50093;BME280;35974;47.752;10.290;2023-12-29T06:39:02;93934.94;;;6.65;100.00
50093;BME280;35974;47.752;10.290;2023-12-29T06:41:29;93939.72;;;6.91;100.00
50093;BME280;35974;47.752;10.290;2023-12-29T06:43:55;93956.22;;;6.99;100.00
50093;BME280;35974;47.752;10.290;2023-12-29T06:46:23;93954.00;;;6.95;100.00
50093;BME280;35974;47.752;10.290;2023-12-29T06:48:49;93893.72;;;6.62;100.00
50093;BME280;35974;47.752;10.290;2023-12-29T06:51:17;93989.41;;;6.96;100.00
50093;BME280;35974;47.752;10.290;2023-12-29T06:53:45;93948.22;;;6.85;100.00
50093;BME280;35974;47.752;10.290;2023-12-29T06:56:16;93955.22;;;6.70;100.00
50093;BME280;35974;47.752;10.290;2023-12-29T06:58:44;93903.81;;;6.42;100.00
50093;BME280;35974;47.752;10.290;2023-12-29T07:01:11;93960.69;;;6.75;100.00
50093;BME280;35974;47.752;10.290;2023-12-29T07:03:38;93944.19;;;6.68;100.00
50093;BME280;35974;47.752;10.290;2023-12-29T07:06:05;93957.13;;;6.76;100.00
50093;BME280;35974;47.752;10.290;2023-12-29T07:08:32;93926.22;;;6.43;100.00
50093;BME280;35974;47.752;10.290;2023-12-29T07:10:58;93972.34;;;6.79;100.00
50093;BME280;35974;47.752;10.290;2023-12-29T07:13:25;93965.72;;;6.62;100.00
50093;BME280;35974;47.752;10.290;2023-12-29T07:15:51;93924.78;;;6.26;100.00
50093;BME280;35974;47.752;10.290;2023-12-29T07:18:18;93948.63;;;6.44;100.00
50093;BME280;35974;47.752;10.290;2023-12-29T07:20:45;93995.13;;;6.77;100.00
50093;BME280;35974;47.752;10.290;2023-12-29T07:23:11;93922.78;;;6.28;100.00
50093;BME280;35974;47.752;10.290;2023-12-29T07:25:38;93959.84;;;6.59;100.00
50093;BME280;35974;47.752;10.290;2023-12-29T07:28:04;93966.06;;;6.58;100.00
50093;BME280;35974;47.752;10.290;2023-12-29T07:30:31;93977.16;;;6.52;100.00
50093;BME280;35974;47.752;10.290;2023-12-29T07:32:57;93972.50;;;6.63;100.00
50093;BME280;35974;47.752;10.290;2023-12-29T07:35:24;93962.72;;;6.50;100.00
50093;BME280;35974;47.752;10.290;2023-12-29T07:37:50;93963.88;;;6.47;100.00
50093;BME280;35974;47.752;10.290;2023-12-29T07:40:17;93984.44;;;6.57;100.00
50093;BME280;35974;47.752;10.290;2023-12-29T07:42:45;93968.72;;;6.50;100.00
50093;BME280;35974;47.752;10.290;2023-12-29T07:45:15;94001.84;;;6.71;100.00
50093;BME280;35974;47.752;10.290;2023-12-29T07:47:41;93952.28;;;6.35;100.00
50093;BME280;35974;47.752;10.290;2023-12-29T07:50:08;93947.59;;;6.30;100.00
50093;BME280;35974;47.752;10.290;2023-12-29T07:52:35;93914.88;;;6.06;100.00
50093;BME280;35974;47.752;10.290;2023-12-29T07:55:02;93956.16;;;6.39;100.00
50093;BME280;35974;47.752;10.290;2023-12-29T07:57:29;93960.06;;;6.35;100.00
50093;BME280;35974;47.752;10.290;2023-12-29T07:59:55;93977.16;;;6.52;100.00
50093;BME280;35974;47.752;10.290;2023-12-29T08:02:22;93953.19;;;6.27;100.00
50093;BME280;35974;47.752;10.290;2023-12-29T08:04:49;93977.22;;;6.44;100.00
50093;BME280;35974;47.752;10.290;2023-12-29T08:07:15;93908.38;;;6.02;100.00
50093;BME280;35974;47.752;10.290;2023-12-29T08:09:42;93922.34;;;6.01;100.00
50093;BME280;35974;47.752;10.290;2023-12-29T08:12:09;94006.38;;;6.54;100.00
50093;BME280;35974;47.752;10.290;2023-12-29T08:14:39;93969.22;;;6.31;100.00
50093;BME280;35974;47.752;10.290;2023-12-29T08:17:05;93919.44;;;5.96;100.00
50093;BME280;35974;47.752;10.290;2023-12-29T08:19:33;93975.66;;;6.35;100.00
50093;BME280;35974;47.752;10.290;2023-12-29T08:22:00;93980.31;;;6.25;100.00
50093;BME280;35974;47.752;10.290;2023-12-29T08:24:26;93977.81;;;6.31;100.00
50093;BME280;35974;47.752;10.290;2023-12-29T08:26:53;93987.22;;;6.55;100.00
50093;BME280;35974;47.752;10.290;2023-12-29T08:29:20;93948.78;;;6.28;100.00
50093;BME280;35974;47.752;10.290;2023-12-29T08:31:46;93981.44;;;6.45;100.00
50093;BME280;35974;47.752;10.290;2023-12-29T08:34:13;93992.75;;;6.52;100.00
50093;BME280;35974;47.752;10.290;2023-12-29T08:36:40;93988.53;;;6.51;100.00
50093;BME280;35974;47.752;10.290;2023-12-29T08:39:07;93953.53;;;6.24;100.00
50093;BME280;35974;47.752;10.290;2023-12-29T08:41:33;94006.97;;;6.65;100.00
50093;BME280;35974;47.752;10.290;2023-12-29T08:44:00;93933.53;;;6.25;100.00
50093;BME280;35974;47.752;10.290;2023-12-29T08:46:26;93948.97;;;6.41;100.00
50093;BME280;35974;47.752;10.290;2023-12-29T08:48:53;93949.97;;;6.40;100.00
50093;BME280;35974;47.752;10.290;2023-12-29T08:51:26;93911.25;;;6.07;100.00
50093;BME280;35974;47.752;10.290;2023-12-29T08:54:03;93880.19;;;5.91;100.00
50093;BME280;35974;47.752;10.290;2023-12-29T08:56:44;93833.94;;;5.71;100.00
50093;BME280;35974;47.752;10.290;2023-12-29T08:59:38;93838.78;;;5.74;100.00
50093;BME280;35974;47.752;10.290;2023-12-29T09:02:07;93803.91;;;5.54;100.00
50093;BME280;35974;47.752;10.290;2023-12-29T09:04:33;93936.25;;;6.46;100.00
50093;BME280;35974;47.752;10.290;2023-12-29T09:07:00;93850.91;;;5.82;100.00
50093;BME280;35974;47.752;10.290;2023-12-29T09:09:27;93731.00;;;5.02;100.00
50093;BME280;35974;47.752;10.290;2023-12-29T09:11:53;93748.69;;;5.22;100.00
50093;BME280;35974;47.752;10.290;2023-12-29T09:14:20;93853.34;;;5.83;100.00
50093;BME280;35974;47.752;10.290;2023-12-29T09:16:46;93845.78;;;5.74;100.00
50093;BME280;35974;47.752;10.290;2023-12-29T09:19:13;94027.09;;;7.01;100.00
50093;BME280;35974;47.752;10.290;2023-12-29T09:21:56;93991.91;;;6.75;100.00
50093;BME280;35974;47.752;10.290;2023-12-29T09:24:23;93728.91;;;5.21;100.00
50093;BME280;35974;47.752;10.290;2023-12-29T09:26:54;93948.13;;;6.64;100.00
50093;BME280;35974;47.752;10.290;2023-12-29T09:33:20;93839.69;;;5.81;100.00
50093;BME280;35974;47.752;10.290;2023-12-29T09:40:06;94017.22;;;7.11;100.00
50093;BME280;35974;47.752;10.290;2023-12-29T09:47:03;93696.75;;;5.07;100.00
50093;BME280;35974;47.752;10.290;2023-12-29T10:08:14;93830.31;;;6.78;100.00
50093;BME280;35974;47.752;10.290;2023-12-29T10:25:23;93707.75;;;6.30;100.00
50093;BME280;35974;47.752;10.290;2023-12-29T10:28:37;93819.28;;;7.12;100.00
50093;BME280;35974;47.752;10.290;2023-12-29T10:31:18;93875.91;;;7.47;100.00
50093;BME280;35974;47.752;10.290;2023-12-29T10:48:50;93919.09;;;8.21;100.00
50093;BME280;35974;47.752;10.290;2023-12-29T10:51:26;93961.28;;;8.74;100.00
50093;BME280;35974;47.752;10.290;2023-12-29T10:53:55;93966.00;;;8.64;100.00
50093;BME280;35974;47.752;10.290;2023-12-29T10:56:23;93937.94;;;8.66;100.00
50093;BME280;35974;47.752;10.290;2023-12-29T10:59:07;93949.88;;;8.54;100.00
50093;BME280;35974;47.752;10.290;2023-12-29T11:01:36;93940.28;;;8.61;100.00
50093;BME280;35974;47.752;10.290;2023-12-29T11:04:09;93941.06;;;8.55;100.00
50093;BME280;35974;47.752;10.290;2023-12-29T11:06:44;93939.53;;;8.67;100.00
50093;BME280;35974;47.752;10.290;2023-12-29T11:09:27;93908.38;;;8.59;100.00
50093;BME280;35974;47.752;10.290;2023-12-29T11:12:03;93941.16;;;8.68;100.00
50093;BME280;35974;47.752;10.290;2023-12-29T11:14:31;93945.63;;;8.74;100.00
50093;BME280;35974;47.752;10.290;2023-12-29T11:17:03;93922.28;;;8.66;100.00
50093;BME280;35974;47.752;10.290;2023-12-29T11:19:31;93911.38;;;8.56;100.00
50093;BME280;35974;47.752;10.290;2023-12-29T11:21:59;93913.00;;;8.57;100.00
50093;BME280;35974;47.752;10.290;2023-12-29T11:24:26;93895.72;;;8.56;100.00
50093;BME280;35974;47.752;10.290;2023-12-29T11:27:06;93927.59;;;8.79;100.00
50093;BME280;35974;47.752;10.290;2023-12-29T11:29:36;93918.13;;;8.78;100.00
50093;BME280;35974;47.752;10.290;2023-12-29T11:32:18;93898.03;;;8.72;100.00
50093;BME280;35974;47.752;10.290;2023-12-29T11:34:53;93910.31;;;8.78;100.00
50093;BME280;35974;47.752;10.290;2023-12-29T11:40:32;93913.63;;;8.94;100.00
50093;BME280;35974;47.752;10.290;2023-12-29T11:43:08;93910.09;;;9.08;100.00
50093;BME280;35974;47.752;10.290;2023-12-29T11:45:39;93887.63;;;9.21;100.00
50093;BME280;35974;47.752;10.290;2023-12-29T11:48:06;93893.63;;;9.14;100.00
50093;BME280;35974;47.752;10.290;2023-12-29T11:50:37;93911.31;;;9.12;100.00
50093;BME280;35974;47.752;10.290;2023-12-29T11:53:09;93896.50;;;9.20;100.00
50093;BME280;35974;47.752;10.290;2023-12-29T11:55:43;93880.47;;;9.29;100.00
50093;BME280;35974;47.752;10.290;2023-12-29T11:58:26;93900.19;;;9.45;100.00
50093;BME280;35974;47.752;10.290;2023-12-29T12:00:55;93890.06;;;9.22;100.00
50093;BME280;35974;47.752;10.290;2023-12-29T12:03:28;93896.06;;;9.23;100.00
50093;BME280;35974;47.752;10.290;2023-12-29T12:05:55;93884.78;;;9.09;100.00
50093;BME280;35974;47.752;10.290;2023-12-29T12:08:37;93883.66;;;9.25;100.00
50093;BME280;35974;47.752;10.290;2023-12-29T12:14:03;93843.47;;;9.26;100.00
50093;BME280;35974;47.752;10.290;2023-12-29T12:16:49;93868.84;;;9.45;100.00
50093;BME280;35974;47.752;10.290;2023-12-29T12:19:17;93851.94;;;9.34;100.00
50093;BME280;35974;47.752;10.290;2023-12-29T12:21:46;93870.09;;;9.63;100.00
50093;BME280;35974;47.752;10.290;2023-12-29T12:24:18;93870.50;;;9.73;100.00
50093;BME280;35974;47.752;10.290;2023-12-29T12:26:45;93852.81;;;9.62;100.00
50093;BME280;35974;47.752;10.290;2023-12-29T12:29:14;93843.19;;;9.69;100.00
50093;BME280;35974;47.752;10.290;2023-12-29T12:31:55;93854.00;;;9.59;100.00
50093;BME280;35974;47.752;10.290;2023-12-29T12:34:23;93861.28;;;9.77;100.00
50093;BME280;35974;47.752;10.290;2023-12-29T12:36:53;93839.59;;;9.77;100.00
50093;BME280;35974;47.752;10.290;2023-12-29T12:39:38;93843.97;;;9.76;100.00
50093;BME280;35974;47.752;10.290;2023-12-29T12:42:04;93853.66;;;9.82;100.00
50093;BME280;35974;47.752;10.290;2023-12-29T12:44:32;93854.03;;;9.73;100.00
50093;BME280;35974;47.752;10.290;2023-12-29T12:47:00;93861.28;;;10.04;100.00
50093;BME280;35974;47.752;10.290;2023-12-29T12:49:29;93871.34;;;10.07;100.00
50093;BME280;35974;47.752;10.290;2023-12-29T12:52:02;93842.00;;;9.92;100.00
50093;BME280;35974;47.752;10.290;2023-12-29T12:54:29;93866.34;;;10.12;100.00
50093;BME280;35974;47.752;10.290;2023-12-29T12:57:03;93847.22;;;10.18;100.00
50093;BME280;35974;47.752;10.290;2023-12-29T12:59:32;93852.47;;;10.18;100.00
50093;BME280;35974;47.752;10.290;2023-12-29T13:02:02;93872.19;;;10.27;100.00
50093;BME280;35974;47.752;10.290;2023-12-29T13:04:32;93847.22;;;9.92;100.00
50093;BME280;35974;47.752;10.290;2023-12-29T13:07:00;93864.94;;;10.10;100.00
50093;BME280;35974;47.752;10.290;2023-12-29T13:09:27;93837.97;;;9.96;100.00
50093;BME280;35974;47.752;10.290;2023-12-29T13:12:10;93846.44;;;9.98;100.00
50093;BME280;35974;47.752;10.290;2023-12-29T13:14:37;93839.19;;;9.93;100.00
50093;BME280;35974;47.752;10.290;2023-12-29T13:17:14;93871.38;;;10.20;100.00
50093;BME280;35974;47.752;10.290;2023-12-29T13:19:41;93863.31;;;10.08;100.00
50093;BME280;35974;47.752;10.290;2023-12-29T13:22:12;93856.47;;;9.87;100.00
50093;BME280;35974;47.752;10.290;2023-12-29T13:24:45;93864.13;;;10.09;100.00
50093;BME280;35974;47.752;10.290;2023-12-29T13:27:18;93832.34;;;9.72;100.00
50093;BME280;35974;47.752;10.290;2023-12-29T13:29:47;93861.28;;;10.04;100.00
50093;BME280;35974;47.752;10.290;2023-12-29T13:32:22;93835.16;;;9.77;100.00
50093;BME280;35974;47.752;10.290;2023-12-29T13:37:52;93855.25;;;9.70;100.00
50093;BME280;35974;47.752;10.290;2023-12-29T13:40:33;93835.34;;;9.69;100.00
50093;BME280;35974;47.752;10.290;2023-12-29T13:43:03;93814.25;;;9.64;100.00
50093;BME280;35974;47.752;10.290;2023-12-29T13:45:33;93846.84;;;9.81;100.00
50093;BME280;35974;47.752;10.290;2023-12-29T13:48:02;93839.59;;;9.83;100.00
50093;BME280;35974;47.752;10.290;2023-12-29T13:50:31;93839.59;;;10.10;100.00
50093;BME280;35974;47.752;10.290;2023-12-29T13:53:00;93830.72;;;9.84;100.00
50093;BME280;35974;47.752;10.290;2023-12-29T13:55:28;93835.94;;;9.78;100.00
50093;BME280;35974;47.752;10.290;2023-12-29T13:57:54;93834.75;;;9.74;100.00
50093;BME280;35974;47.752;10.290;2023-12-29T14:00:22;93850.22;;;9.75;100.00
50093;BME280;35974;47.752;10.290;2023-12-29T14:05:51;93851.63;;;9.84;100.00
50093;BME280;35974;47.752;10.290;2023-12-29T14:08:25;93851.81;;;9.83;100.00
50093;BME280;35974;47.752;10.290;2023-12-29T14:10:55;93821.03;;;9.51;100.00
50093;BME280;35974;47.752;10.290;2023-12-29T14:13:21;93836.53;;;9.66;100.00
50093;BME280;35974;47.752;10.290;2023-12-29T14:15:51;93816.22;;;9.62;100.00
50093;BME280;35974;47.752;10.290;2023-12-29T14:21:23;93840.78;;;9.67;100.00